KBLM

Monmouth Executive Airport

Airport
ICAO code
KBLM
IATA Code
BLM
Summary
ICAO Region
NAM
ICAO Territory
Location

Belmar/Farmingdale, New Jersey,

Serving
Belmar/Farmingdale
Elevation
159 ft
Coordinates
40° 11' 8" N , 74° 7' 22" W
KCC
Airport WX
Tropical Revolving Storm
Metar
KBLM 142256Z AUTO 21014G23KT 10SM CLR 22/04 A2966 RMK AO2 PK WND 21027/2158 SLP044 T02220039

Description

Monmouth Executive Airport is a public use airport located 8.0 km west of the central business district of Belmar and east of Farmingdale, in Monmouth County, New Jersey.

Climatology

Humid “subtropical” climate (Köppen climate classification Cfa) - characterized by hot, humid summers and cool winters. Significant amounts of precipitation occur in all seasons in most areas. Winter rainfall (and sometimes snowfall) is associated with large storms that the westerlies steer from west to east. Most summer rainfall occurs during thunderstorms and occasional tropical storms (hurricanes).

Airport map

Aerial View

SKYbrary Partners:

Safety knowledge contributed by: